sensor_id;sensor_type;location;lat;lon;timestamp;P1;durP1;ratioP1;P2;durP2;ratioP2
65471;SDS011;52068;50.710;14.492;2022-07-29T00:02:25;0.80;;;0.80;;
65471;SDS011;52068;50.710;14.492;2022-07-29T00:04:51;2.25;;;0.90;;
65471;SDS011;52068;50.710;14.492;2022-07-29T00:07:16;2.50;;;0.90;;
65471;SDS011;52068;50.710;14.492;2022-07-29T00:09:42;1.17;;;1.05;;
65471;SDS011;52068;50.710;14.492;2022-07-29T00:12:07;1.17;;;1.00;;
65471;SDS011;52068;50.710;14.492;2022-07-29T00:14:32;1.00;;;0.90;;
65471;SDS011;52068;50.710;14.492;2022-07-29T00:16:58;1.58;;;0.95;;
65471;SDS011;52068;50.710;14.492;2022-07-29T00:19:23;0.88;;;0.80;;
65471;SDS011;52068;50.710;14.492;2022-07-29T00:21:48;0.85;;;0.80;;
65471;SDS011;52068;50.710;14.492;2022-07-29T00:24:14;1.27;;;0.77;;
65471;SDS011;52068;50.710;14.492;2022-07-29T00:26:39;0.90;;;0.77;;
65471;SDS011;52068;50.710;14.492;2022-07-29T00:29:04;1.77;;;0.90;;
65471;SDS011;52068;50.710;14.492;2022-07-29T00:31:30;1.50;;;0.93;;
65471;SDS011;52068;50.710;14.492;2022-07-29T00:33:56;1.02;;;0.75;;
65471;SDS011;52068;50.710;14.492;2022-07-29T00:36:21;1.33;;;0.70;;
65471;SDS011;52068;50.710;14.492;2022-07-29T00:38:48;0.88;;;0.65;;
65471;SDS011;52068;50.710;14.492;2022-07-29T00:41:14;1.10;;;1.00;;
65471;SDS011;52068;50.710;14.492;2022-07-29T00:43:40;0.98;;;0.88;;
65471;SDS011;52068;50.710;14.492;2022-07-29T00:46:05;0.70;;;0.60;;
65471;SDS011;52068;50.710;14.492;2022-07-29T00:48:31;0.95;;;0.80;;
65471;SDS011;52068;50.710;14.492;2022-07-29T00:50:57;3.60;;;1.10;;
65471;SDS011;52068;50.710;14.492;2022-07-29T00:53:24;2.78;;;1.08;;
65471;SDS011;52068;50.710;14.492;2022-07-29T00:55:50;2.35;;;0.90;;
65471;SDS011;52068;50.710;14.492;2022-07-29T00:58:16;1.98;;;0.93;;
65471;SDS011;52068;50.710;14.492;2022-07-29T01:00:42;1.70;;;0.90;;
65471;SDS011;52068;50.710;14.492;2022-07-29T01:03:07;0.80;;;0.80;;
65471;SDS011;52068;50.710;14.492;2022-07-29T01:05:33;0.70;;;0.70;;
65471;SDS011;52068;50.710;14.492;2022-07-29T01:07:59;1.45;;;0.98;;
65471;SDS011;52068;50.710;14.492;2022-07-29T01:10:26;1.30;;;1.05;;
65471;SDS011;52068;50.710;14.492;2022-07-29T01:12:52;1.58;;;0.93;;
65471;SDS011;52068;50.710;14.492;2022-07-29T01:15:21;0.70;;;0.70;;
65471;SDS011;52068;50.710;14.492;2022-07-29T01:31:11;1.10;;;0.85;;
65471;SDS011;52068;50.710;14.492;2022-07-29T01:33:43;1.08;;;0.95;;
65471;SDS011;52068;50.710;14.492;2022-07-29T01:36:37;2.20;;;0.80;;
65471;SDS011;52068;50.710;14.492;2022-07-29T01:39:04;0.93;;;0.85;;
65471;SDS011;52068;50.710;14.492;2022-07-29T01:41:32;1.70;;;1.17;;
65471;SDS011;52068;50.710;14.492;2022-07-29T01:44:15;1.70;;;0.90;;
65471;SDS011;52068;50.710;14.492;2022-07-29T01:47:05;1.15;;;0.95;;
65471;SDS011;52068;50.710;14.492;2022-07-29T01:49:38;1.60;;;0.77;;
65471;SDS011;52068;50.710;14.492;2022-07-29T01:52:11;1.90;;;0.85;;
65471;SDS011;52068;50.710;14.492;2022-07-29T01:54:45;1.58;;;0.98;;
65471;SDS011;52068;50.710;14.492;2022-07-29T01:57:16;3.13;;;0.93;;
65471;SDS011;52068;50.710;14.492;2022-07-29T01:59:45;2.15;;;0.60;;
65471;SDS011;52068;50.710;14.492;2022-07-29T02:02:12;0.63;;;0.63;;
65471;SDS011;52068;50.710;14.492;2022-07-29T02:04:40;1.95;;;0.93;;
65471;SDS011;52068;50.710;14.492;2022-07-29T02:07:08;0.85;;;0.70;;
65471;SDS011;52068;50.710;14.492;2022-07-29T02:09:38;1.20;;;0.82;;
65471;SDS011;52068;50.710;14.492;2022-07-29T02:12:05;1.02;;;0.80;;
65471;SDS011;52068;50.710;14.492;2022-07-29T02:14:37;0.80;;;0.80;;
65471;SDS011;52068;50.710;14.492;2022-07-29T02:17:05;1.73;;;1.00;;
65471;SDS011;52068;50.710;14.492;2022-07-29T02:19:32;1.05;;;0.90;;
65471;SDS011;52068;50.710;14.492;2022-07-29T02:21:59;2.58;;;0.93;;
65471;SDS011;52068;50.710;14.492;2022-07-29T02:24:25;1.73;;;0.80;;
65471;SDS011;52068;50.710;14.492;2022-07-29T02:26:53;3.97;;;0.98;;
65471;SDS011;52068;50.710;14.492;2022-07-29T02:29:22;1.30;;;0.90;;
65471;SDS011;52068;50.710;14.492;2022-07-29T02:31:50;1.05;;;0.93;;
65471;SDS011;52068;50.710;14.492;2022-07-29T02:34:17;0.60;;;0.60;;
65471;SDS011;52068;50.710;14.492;2022-07-29T02:36:44;2.05;;;0.80;;
65471;SDS011;52068;50.710;14.492;2022-07-29T02:39:10;1.80;;;0.75;;
65471;SDS011;52068;50.710;14.492;2022-07-29T02:44:16;1.45;;;0.98;;
65471;SDS011;52068;50.710;14.492;2022-07-29T02:49:36;1.63;;;0.93;;
65471;SDS011;52068;50.710;14.492;2022-07-29T02:52:12;2.15;;;0.80;;
65471;SDS011;52068;50.710;14.492;2022-07-29T02:55:04;2.40;;;1.00;;
65471;SDS011;52068;50.710;14.492;2022-07-29T02:57:49;1.05;;;0.95;;
65471;SDS011;52068;50.710;14.492;2022-07-29T03:00:23;0.70;;;0.70;;
65471;SDS011;52068;50.710;14.492;2022-07-29T03:02:53;1.52;;;0.90;;
65471;SDS011;52068;50.710;14.492;2022-07-29T03:05:21;0.75;;;0.73;;
65471;SDS011;52068;50.710;14.492;2022-07-29T03:07:57;2.00;;;0.77;;
65471;SDS011;52068;50.710;14.492;2022-07-29T03:10:26;1.08;;;0.70;;
65471;SDS011;52068;50.710;14.492;2022-07-29T03:12:52;2.97;;;0.77;;
65471;SDS011;52068;50.710;14.492;2022-07-29T03:15:19;3.33;;;0.85;;
65471;SDS011;52068;50.710;14.492;2022-07-29T03:17:45;0.75;;;0.65;;
65471;SDS011;52068;50.710;14.492;2022-07-29T03:20:11;1.00;;;0.93;;
65471;SDS011;52068;50.710;14.492;2022-07-29T03:22:41;2.00;;;0.82;;
65471;SDS011;52068;50.710;14.492;2022-07-29T03:25:09;1.27;;;0.80;;
65471;SDS011;52068;50.710;14.492;2022-07-29T03:27:36;6.32;;;0.75;;
65471;SDS011;52068;50.710;14.492;2022-07-29T03:30:02;7.22;;;0.93;;
65471;SDS011;52068;50.710;14.492;2022-07-29T03:32:28;1.30;;;0.65;;
65471;SDS011;52068;50.710;14.492;2022-07-29T03:34:53;0.60;;;0.60;;
65471;SDS011;52068;50.710;14.492;2022-07-29T03:37:19;1.48;;;0.98;;
65471;SDS011;52068;50.710;14.492;2022-07-29T03:39:44;1.25;;;0.70;;
65471;SDS011;52068;50.710;14.492;2022-07-29T03:42:13;4.18;;;0.80;;
65471;SDS011;52068;50.710;14.492;2022-07-29T03:44:41;1.70;;;1.00;;
65471;SDS011;52068;50.710;14.492;2022-07-29T03:47:10;4.18;;;1.20;;
65471;SDS011;52068;50.710;14.492;2022-07-29T03:49:38;5.80;;;1.20;;
65471;SDS011;52068;50.710;14.492;2022-07-29T03:52:05;19.25;;;2.03;;
65471;SDS011;52068;50.710;14.492;2022-07-29T03:54:31;12.55;;;1.63;;
65471;SDS011;52068;50.710;14.492;2022-07-29T03:56:58;8.77;;;1.10;;
65471;SDS011;52068;50.710;14.492;2022-07-29T03:59:26;9.65;;;1.33;;
65471;SDS011;52068;50.710;14.492;2022-07-29T04:01:53;10.32;;;1.60;;
65471;SDS011;52068;50.710;14.492;2022-07-29T04:04:21;8.05;;;1.48;;
65471;SDS011;52068;50.710;14.492;2022-07-29T04:06:47;2.25;;;1.10;;
65471;SDS011;52068;50.710;14.492;2022-07-29T04:09:13;5.70;;;1.30;;
65471;SDS011;52068;50.710;14.492;2022-07-29T04:11:39;8.40;;;1.23;;
65471;SDS011;52068;50.710;14.492;2022-07-29T04:14:05;4.25;;;1.05;;
65471;SDS011;52068;50.710;14.492;2022-07-29T04:16:30;7.07;;;1.08;;
65471;SDS011;52068;50.710;14.492;2022-07-29T04:18:56;6.15;;;1.15;;
65471;SDS011;52068;50.710;14.492;2022-07-29T04:21:22;3.33;;;1.13;;
65471;SDS011;52068;50.710;14.492;2022-07-29T04:23:47;4.78;;;1.27;;
65471;SDS011;52068;50.710;14.492;2022-07-29T04:26:17;4.78;;;1.50;;
65471;SDS011;52068;50.710;14.492;2022-07-29T04:28:43;2.30;;;1.10;;
65471;SDS011;52068;50.710;14.492;2022-07-29T04:31:10;1.67;;;1.13;;
65471;SDS011;52068;50.710;14.492;2022-07-29T04:33:36;1.73;;;1.00;;
65471;SDS011;52068;50.710;14.492;2022-07-29T04:36:01;2.00;;;0.93;;
65471;SDS011;52068;50.710;14.492;2022-07-29T04:38:27;3.17;;;1.25;;
65471;SDS011;52068;50.710;14.492;2022-07-29T04:40:52;1.45;;;0.95;;
65471;SDS011;52068;50.710;14.492;2022-07-29T04:43:18;1.58;;;1.00;;
65471;SDS011;52068;50.710;14.492;2022-07-29T04:45:43;2.03;;;0.98;;
65471;SDS011;52068;50.710;14.492;2022-07-29T04:48:09;4.65;;;1.15;;
65471;SDS011;52068;50.710;14.492;2022-07-29T04:50:37;1.95;;;1.10;;
65471;SDS011;52068;50.710;14.492;2022-07-29T04:53:03;3.67;;;0.90;;
65471;SDS011;52068;50.710;14.492;2022-07-29T04:55:28;1.65;;;0.90;;
65471;SDS011;52068;50.710;14.492;2022-07-29T04:57:54;1.95;;;1.00;;
65471;SDS011;52068;50.710;14.492;2022-07-29T05:00:19;2.95;;;1.00;;
65471;SDS011;52068;50.710;14.492;2022-07-29T05:02:44;2.90;;;0.82;;
65471;SDS011;52068;50.710;14.492;2022-07-29T05:05:10;1.00;;;0.80;;
65471;SDS011;52068;50.710;14.492;2022-07-29T05:07:35;2.05;;;0.88;;
65471;SDS011;52068;50.710;14.492;2022-07-29T05:10:00;0.95;;;0.88;;
65471;SDS011;52068;50.710;14.492;2022-07-29T05:12:26;0.82;;;0.77;;
65471;SDS011;52068;50.710;14.492;2022-07-29T05:14:52;2.70;;;1.15;;
65471;SDS011;52068;50.710;14.492;2022-07-29T05:17:17;1.27;;;0.90;;
65471;SDS011;52068;50.710;14.492;2022-07-29T05:19:43;1.55;;;0.80;;
65471;SDS011;52068;50.710;14.492;2022-07-29T05:22:08;1.63;;;0.98;;
65471;SDS011;52068;50.710;14.492;2022-07-29T05:24:34;3.30;;;1.10;;
65471;SDS011;52068;50.710;14.492;2022-07-29T05:26:59;1.48;;;0.70;;
65471;SDS011;52068;50.710;14.492;2022-07-29T05:29:24;2.20;;;1.05;;
65471;SDS011;52068;50.710;14.492;2022-07-29T05:31:50;1.40;;;0.90;;
65471;SDS011;52068;50.710;14.492;2022-07-29T05:34:16;0.75;;;0.75;;
65471;SDS011;52068;50.710;14.492;2022-07-29T05:36:42;2.78;;;1.00;;
65471;SDS011;52068;50.710;14.492;2022-07-29T05:39:07;0.90;;;0.88;;
65471;SDS011;52068;50.710;14.492;2022-07-29T05:41:33;1.40;;;0.90;;
65471;SDS011;52068;50.710;14.492;2022-07-29T05:43:58;2.28;;;1.00;;
65471;SDS011;52068;50.710;14.492;2022-07-29T05:46:23;1.80;;;0.90;;
65471;SDS011;52068;50.710;14.492;2022-07-29T05:48:49;4.53;;;1.23;;
65471;SDS011;52068;50.710;14.492;2022-07-29T05:51:14;2.20;;;0.85;;
65471;SDS011;52068;50.710;14.492;2022-07-29T05:53:40;0.90;;;0.90;;
65471;SDS011;52068;50.710;14.492;2022-07-29T05:56:06;0.80;;;0.80;;
65471;SDS011;52068;50.710;14.492;2022-07-29T05:58:32;2.88;;;1.05;;
65471;SDS011;52068;50.710;14.492;2022-07-29T06:00:57;1.00;;;1.00;;
65471;SDS011;52068;50.710;14.492;2022-07-29T06:03:24;1.20;;;1.00;;
65471;SDS011;52068;50.710;14.492;2022-07-29T06:05:50;2.42;;;1.10;;
65471;SDS011;52068;50.710;14.492;2022-07-29T06:08:15;2.33;;;1.00;;
65471;SDS011;52068;50.710;14.492;2022-07-29T06:10:40;1.90;;;1.00;;
65471;SDS011;52068;50.710;14.492;2022-07-29T06:13:06;0.88;;;0.77;;
65471;SDS011;52068;50.710;14.492;2022-07-29T06:15:31;1.83;;;1.00;;
65471;SDS011;52068;50.710;14.492;2022-07-29T06:17:57;1.27;;;1.00;;
65471;SDS011;52068;50.710;14.492;2022-07-29T06:20:22;2.60;;;1.10;;
65471;SDS011;52068;50.710;14.492;2022-07-29T06:22:48;3.72;;;1.05;;
65471;SDS011;52068;50.710;14.492;2022-07-29T06:25:13;1.38;;;1.02;;
65471;SDS011;52068;50.710;14.492;2022-07-29T06:27:38;1.70;;;1.10;;
65471;SDS011;52068;50.710;14.492;2022-07-29T06:30:04;3.08;;;1.13;;
65471;SDS011;52068;50.710;14.492;2022-07-29T06:32:32;1.20;;;1.10;;
65471;SDS011;52068;50.710;14.492;2022-07-29T06:34:58;2.10;;;1.20;;
65471;SDS011;52068;50.710;14.492;2022-07-29T06:37:23;5.05;;;1.27;;
65471;SDS011;52068;50.710;14.492;2022-07-29T06:39:49;2.28;;;1.05;;
65471;SDS011;52068;50.710;14.492;2022-07-29T06:42:34;1.58;;;1.10;;
65471;SDS011;52068;50.710;14.492;2022-07-29T06:44:59;4.32;;;1.45;;
65471;SDS011;52068;50.710;14.492;2022-07-29T06:47:24;9.88;;;1.33;;
65471;SDS011;52068;50.710;14.492;2022-07-29T06:49:50;1.77;;;1.13;;
65471;SDS011;52068;50.710;14.492;2022-07-29T06:52:15;3.65;;;1.33;;
65471;SDS011;52068;50.710;14.492;2022-07-29T06:54:40;3.55;;;1.30;;
65471;SDS011;52068;50.710;14.492;2022-07-29T06:57:12;5.77;;;1.50;;
65471;SDS011;52068;50.710;14.492;2022-07-29T06:59:38;3.05;;;1.23;;
65471;SDS011;52068;50.710;14.492;2022-07-29T07:02:03;5.35;;;1.77;;
65471;SDS011;52068;50.710;14.492;2022-07-29T07:04:29;2.35;;;1.52;;
65471;SDS011;52068;50.710;14.492;2022-07-29T07:06:54;3.45;;;1.30;;
65471;SDS011;52068;50.710;14.492;2022-07-29T07:09:20;4.47;;;1.58;;
65471;SDS011;52068;50.710;14.492;2022-07-29T07:11:46;4.60;;;1.50;;
65471;SDS011;52068;50.710;14.492;2022-07-29T07:14:11;5.22;;;1.52;;
65471;SDS011;52068;50.710;14.492;2022-07-29T07:16:37;3.97;;;1.27;;
65471;SDS011;52068;50.710;14.492;2022-07-29T07:19:02;2.10;;;1.48;;
65471;SDS011;52068;50.710;14.492;2022-07-29T07:21:27;4.03;;;1.60;;
65471;SDS011;52068;50.710;14.492;2022-07-29T07:23:53;2.53;;;1.45;;
65471;SDS011;52068;50.710;14.492;2022-07-29T07:26:18;4.15;;;1.92;;
65471;SDS011;52068;50.710;14.492;2022-07-29T07:28:44;2.80;;;1.48;;
65471;SDS011;52068;50.710;14.492;2022-07-29T07:31:09;4.70;;;1.90;;
65471;SDS011;52068;50.710;14.492;2022-07-29T07:33:35;5.28;;;1.70;;
65471;SDS011;52068;50.710;14.492;2022-07-29T07:36:00;4.10;;;1.77;;
65471;SDS011;52068;50.710;14.492;2022-07-29T07:38:26;9.48;;;2.03;;
65471;SDS011;52068;50.710;14.492;2022-07-29T07:40:51;6.30;;;1.73;;
65471;SDS011;52068;50.710;14.492;2022-07-29T07:43:16;5.05;;;1.90;;
65471;SDS011;52068;50.710;14.492;2022-07-29T07:45:42;1.85;;;1.40;;
65471;SDS011;52068;50.710;14.492;2022-07-29T07:48:07;2.30;;;1.63;;
65471;SDS011;52068;50.710;14.492;2022-07-29T07:50:35;6.07;;;2.17;;
65471;SDS011;52068;50.710;14.492;2022-07-29T07:53:00;2.08;;;1.42;;
65471;SDS011;52068;50.710;14.492;2022-07-29T07:55:27;7.03;;;2.10;;
65471;SDS011;52068;50.710;14.492;2022-07-29T07:57:53;4.45;;;2.10;;
65471;SDS011;52068;50.710;14.492;2022-07-29T08:00:19;7.93;;;1.80;;
65471;SDS011;52068;50.710;14.492;2022-07-29T08:02:44;4.63;;;1.80;;
65471;SDS011;52068;50.710;14.492;2022-07-29T08:05:10;5.43;;;1.70;;
65471;SDS011;52068;50.710;14.492;2022-07-29T08:07:37;5.30;;;1.88;;
65471;SDS011;52068;50.710;14.492;2022-07-29T08:10:02;4.32;;;1.88;;
65471;SDS011;52068;50.710;14.492;2022-07-29T08:12:28;2.75;;;1.60;;
65471;SDS011;52068;50.710;14.492;2022-07-29T08:14:53;7.13;;;2.00;;
65471;SDS011;52068;50.710;14.492;2022-07-29T08:17:19;2.63;;;1.63;;
65471;SDS011;52068;50.710;14.492;2022-07-29T08:19:44;5.70;;;2.05;;
65471;SDS011;52068;50.710;14.492;2022-07-29T08:22:10;4.70;;;1.92;;
65471;SDS011;52068;50.710;14.492;2022-07-29T08:24:35;3.78;;;1.67;;
65471;SDS011;52068;50.710;14.492;2022-07-29T08:27:33;6.07;;;1.80;;
65471;SDS011;52068;50.710;14.492;2022-07-29T08:29:58;5.20;;;1.73;;
65471;SDS011;52068;50.710;14.492;2022-07-29T08:32:24;3.63;;;1.70;;
65471;SDS011;52068;50.710;14.492;2022-07-29T08:34:49;5.05;;;1.98;;
65471;SDS011;52068;50.710;14.492;2022-07-29T08:37:15;4.80;;;1.60;;
65471;SDS011;52068;50.710;14.492;2022-07-29T08:39:40;8.07;;;2.00;;
65471;SDS011;52068;50.710;14.492;2022-07-29T08:42:06;6.75;;;1.70;;
65471;SDS011;52068;50.710;14.492;2022-07-29T08:44:32;3.47;;;1.80;;
65471;SDS011;52068;50.710;14.492;2022-07-29T08:46:58;7.25;;;1.75;;
65471;SDS011;52068;50.710;14.492;2022-07-29T08:49:23;5.63;;;2.13;;
65471;SDS011;52068;50.710;14.492;2022-07-29T08:51:49;8.13;;;2.03;;
65471;SDS011;52068;50.710;14.492;2022-07-29T08:54:16;7.07;;;1.80;;
65471;SDS011;52068;50.710;14.492;2022-07-29T08:56:43;10.70;;;1.75;;
65471;SDS011;52068;50.710;14.492;2022-07-29T08:59:09;6.82;;;1.83;;
65471;SDS011;52068;50.710;14.492;2022-07-29T09:01:37;3.83;;;1.65;;
65471;SDS011;52068;50.710;14.492;2022-07-29T09:04:03;5.10;;;2.08;;
65471;SDS011;52068;50.710;14.492;2022-07-29T09:06:31;5.07;;;1.70;;
65471;SDS011;52068;50.710;14.492;2022-07-29T09:09:01;5.78;;;1.75;;
65471;SDS011;52068;50.710;14.492;2022-07-29T09:11:26;6.20;;;1.70;;
65471;SDS011;52068;50.710;14.492;2022-07-29T09:13:52;3.22;;;1.85;;
65471;SDS011;52068;50.710;14.492;2022-07-29T09:16:18;4.57;;;1.83;;
65471;SDS011;52068;50.710;14.492;2022-07-29T09:18:44;4.05;;;1.90;;
65471;SDS011;52068;50.710;14.492;2022-07-29T09:21:11;3.60;;;1.98;;
65471;SDS011;52068;50.710;14.492;2022-07-29T09:24:10;7.57;;;1.90;;
65471;SDS011;52068;50.710;14.492;2022-07-29T09:26:38;5.72;;;1.70;;
65471;SDS011;52068;50.710;14.492;2022-07-29T09:29:12;3.90;;;2.00;;
65471;SDS011;52068;50.710;14.492;2022-07-29T09:31:51;5.03;;;1.90;;
65471;SDS011;52068;50.710;14.492;2022-07-29T09:34:36;5.43;;;1.65;;
65471;SDS011;52068;50.710;14.492;2022-07-29T09:37:02;6.03;;;1.60;;
65471;SDS011;52068;50.710;14.492;2022-07-29T09:41:55;4.88;;;1.67;;
65471;SDS011;52068;50.710;14.492;2022-07-29T09:44:22;4.90;;;1.70;;
65471;SDS011;52068;50.710;14.492;2022-07-29T09:49:20;4.67;;;1.60;;
65471;SDS011;52068;50.710;14.492;2022-07-29T09:51:45;3.13;;;1.90;;
65471;SDS011;52068;50.710;14.492;2022-07-29T09:54:24;6.47;;;1.80;;
65471;SDS011;52068;50.710;14.492;2022-07-29T09:56:53;4.97;;;1.85;;
65471;SDS011;52068;50.710;14.492;2022-07-29T09:59:20;3.60;;;1.42;;
65471;SDS011;52068;50.710;14.492;2022-07-29T10:01:48;3.08;;;1.85;;
65471;SDS011;52068;50.710;14.492;2022-07-29T10:04:15;4.03;;;2.28;;
65471;SDS011;52068;50.710;14.492;2022-07-29T10:07:00;5.78;;;1.90;;
65471;SDS011;52068;50.710;14.492;2022-07-29T10:09:26;2.70;;;1.60;;
65471;SDS011;52068;50.710;14.492;2022-07-29T10:12:11;5.38;;;1.95;;
65471;SDS011;52068;50.710;14.492;2022-07-29T10:14:40;3.83;;;1.63;;
65471;SDS011;52068;50.710;14.492;2022-07-29T10:17:07;7.03;;;1.77;;
65471;SDS011;52068;50.710;14.492;2022-07-29T10:19:35;3.63;;;1.52;;
65471;SDS011;52068;50.710;14.492;2022-07-29T10:22:03;3.13;;;1.90;;
65471;SDS011;52068;50.710;14.492;2022-07-29T10:24:31;3.58;;;1.58;;
65471;SDS011;52068;50.710;14.492;2022-07-29T10:26:58;2.50;;;1.80;;
65471;SDS011;52068;50.710;14.492;2022-07-29T10:29:25;3.63;;;1.73;;
65471;SDS011;52068;50.710;14.492;2022-07-29T10:34:49;3.92;;;1.60;;
65471;SDS011;52068;50.710;14.492;2022-07-29T10:37:26;6.40;;;1.70;;
65471;SDS011;52068;50.710;14.492;2022-07-29T10:40:02;5.40;;;1.80;;
65471;SDS011;52068;50.710;14.492;2022-07-29T10:42:52;2.30;;;1.80;;
65471;SDS011;52068;50.710;14.492;2022-07-29T10:45:18;6.03;;;1.90;;
65471;SDS011;52068;50.710;14.492;2022-07-29T10:47:44;3.70;;;1.90;;
65471;SDS011;52068;50.710;14.492;2022-07-29T10:50:10;5.32;;;1.80;;
65471;SDS011;52068;50.710;14.492;2022-07-29T11:00:49;2.53;;;1.73;;
65471;SDS011;52068;50.710;14.492;2022-07-29T11:06:12;4.75;;;1.90;;
65471;SDS011;52068;50.710;14.492;2022-07-29T11:08:38;4.63;;;1.90;;
65471;SDS011;52068;50.710;14.492;2022-07-29T11:16:13;2.50;;;1.73;;
65471;SDS011;52068;50.710;14.492;2022-07-29T11:21:35;4.15;;;1.80;;
65471;SDS011;52068;50.710;14.492;2022-07-29T11:24:18;3.25;;;2.00;;
65471;SDS011;52068;50.710;14.492;2022-07-29T11:27:05;6.60;;;1.55;;
65471;SDS011;52068;50.710;14.492;2022-07-29T11:29:30;2.63;;;1.70;;
65471;SDS011;52068;50.710;14.492;2022-07-29T11:32:07;7.72;;;1.88;;
65471;SDS011;52068;50.710;14.492;2022-07-29T11:34:36;5.15;;;1.83;;
65471;SDS011;52068;50.710;14.492;2022-07-29T11:45:02;4.70;;;1.80;;
65471;SDS011;52068;50.710;14.492;2022-07-29T11:47:33;3.78;;;1.55;;
65471;SDS011;52068;50.710;14.492;2022-07-29T11:50:02;9.18;;;2.10;;
65471;SDS011;52068;50.710;14.492;2022-07-29T11:52:39;5.15;;;2.00;;
65471;SDS011;52068;50.710;14.492;2022-07-29T11:55:11;3.38;;;1.88;;
65471;SDS011;52068;50.710;14.492;2022-07-29T11:57:45;8.45;;;2.13;;
65471;SDS011;52068;50.710;14.492;2022-07-29T12:00:31;8.52;;;2.13;;
65471;SDS011;52068;50.710;14.492;2022-07-29T12:02:58;3.30;;;1.83;;
65471;SDS011;52068;50.710;14.492;2022-07-29T12:05:39;8.23;;;2.15;;
65471;SDS011;52068;50.710;14.492;2022-07-29T12:08:07;7.05;;;1.92;;
65471;SDS011;52068;50.710;14.492;2022-07-29T12:10:33;3.42;;;1.90;;
65471;SDS011;52068;50.710;14.492;2022-07-29T12:12:58;5.47;;;2.00;;
65471;SDS011;52068;50.710;14.492;2022-07-29T12:15:24;2.97;;;1.73;;
65471;SDS011;52068;50.710;14.492;2022-07-29T12:17:51;6.20;;;2.10;;
65471;SDS011;52068;50.710;14.492;2022-07-29T12:20:26;4.70;;;1.67;;
65471;SDS011;52068;50.710;14.492;2022-07-29T12:22:53;1.70;;;1.60;;
65471;SDS011;52068;50.710;14.492;2022-07-29T12:25:19;4.88;;;2.00;;
65471;SDS011;52068;50.710;14.492;2022-07-29T12:27:47;7.07;;;1.90;;
65471;SDS011;52068;50.710;14.492;2022-07-29T12:30:13;4.00;;;1.73;;
65471;SDS011;52068;50.710;14.492;2022-07-29T12:32:44;5.78;;;1.70;;
65471;SDS011;52068;50.710;14.492;2022-07-29T12:35:12;5.05;;;1.90;;
65471;SDS011;52068;50.710;14.492;2022-07-29T12:37:39;5.15;;;2.00;;
65471;SDS011;52068;50.710;14.492;2022-07-29T12:40:06;2.78;;;1.90;;
65471;SDS011;52068;50.710;14.492;2022-07-29T12:42:34;4.93;;;1.70;;
65471;SDS011;52068;50.710;14.492;2022-07-29T12:45:00;3.35;;;1.90;;
65471;SDS011;52068;50.710;14.492;2022-07-29T12:47:26;4.65;;;1.90;;
65471;SDS011;52068;50.710;14.492;2022-07-29T12:50:07;2.97;;;1.90;;
65471;SDS011;52068;50.710;14.492;2022-07-29T12:52:37;4.05;;;1.90;;
65471;SDS011;52068;50.710;14.492;2022-07-29T12:55:03;2.78;;;1.83;;
65471;SDS011;52068;50.710;14.492;2022-07-29T12:57:29;3.83;;;1.80;;
65471;SDS011;52068;50.710;14.492;2022-07-29T12:59:59;2.97;;;1.55;;
65471;SDS011;52068;50.710;14.492;2022-07-29T13:02:36;4.80;;;1.60;;
65471;SDS011;52068;50.710;14.492;2022-07-29T13:05:03;2.95;;;1.80;;
65471;SDS011;52068;50.710;14.492;2022-07-29T13:07:30;3.28;;;2.00;;
65471;SDS011;52068;50.710;14.492;2022-07-29T13:10:09;2.47;;;1.85;;
65471;SDS011;52068;50.710;14.492;2022-07-29T13:12:37;4.72;;;2.03;;
65471;SDS011;52068;50.710;14.492;2022-07-29T13:15:15;3.85;;;1.80;;
65471;SDS011;52068;50.710;14.492;2022-07-29T13:17:43;3.65;;;1.88;;
65471;SDS011;52068;50.710;14.492;2022-07-29T13:20:09;3.30;;;1.67;;
65471;SDS011;52068;50.710;14.492;2022-07-29T13:22:40;2.05;;;1.60;;
65471;SDS011;52068;50.710;14.492;2022-07-29T13:25:07;5.38;;;2.00;;
65471;SDS011;52068;50.710;14.492;2022-07-29T13:27:33;4.22;;;2.00;;
65471;SDS011;52068;50.710;14.492;2022-07-29T13:30:05;6.05;;;1.67;;
65471;SDS011;52068;50.710;14.492;2022-07-29T13:32:32;6.97;;;1.90;;
65471;SDS011;52068;50.710;14.492;2022-07-29T13:35:03;4.03;;;1.70;;
65471;SDS011;52068;50.710;14.492;2022-07-29T13:37:31;2.83;;;1.77;;
65471;SDS011;52068;50.710;14.492;2022-07-29T13:39:58;2.45;;;1.67;;
65471;SDS011;52068;50.710;14.492;2022-07-29T13:42:24;3.60;;;1.70;;
65471;SDS011;52068;50.710;14.492;2022-07-29T13:44:51;3.25;;;2.20;;
65471;SDS011;52068;50.710;14.492;2022-07-29T13:47:17;1.75;;;1.58;;
65471;SDS011;52068;50.710;14.492;2022-07-29T13:49:45;1.95;;;1.60;;
65471;SDS011;52068;50.710;14.492;2022-07-29T13:52:11;2.63;;;1.85;;
65471;SDS011;52068;50.710;14.492;2022-07-29T13:54:36;4.75;;;1.60;;
65471;SDS011;52068;50.710;14.492;2022-07-29T13:57:06;2.38;;;1.58;;
65471;SDS011;52068;50.710;14.492;2022-07-29T13:59:32;1.77;;;1.65;;
65471;SDS011;52068;50.710;14.492;2022-07-29T14:01:58;5.15;;;1.65;;
65471;SDS011;52068;50.710;14.492;2022-07-29T14:04:23;4.20;;;1.88;;
65471;SDS011;52068;50.710;14.492;2022-07-29T14:06:49;3.65;;;1.73;;
65471;SDS011;52068;50.710;14.492;2022-07-29T14:09:15;3.15;;;1.73;;
65471;SDS011;52068;50.710;14.492;2022-07-29T14:11:40;4.47;;;1.92;;
65471;SDS011;52068;50.710;14.492;2022-07-29T14:14:05;2.55;;;1.67;;
65471;SDS011;52068;50.710;14.492;2022-07-29T14:16:31;4.43;;;1.50;;
65471;SDS011;52068;50.710;14.492;2022-07-29T14:18:56;2.25;;;1.55;;
65471;SDS011;52068;50.710;14.492;2022-07-29T14:21:22;3.15;;;1.63;;
65471;SDS011;52068;50.710;14.492;2022-07-29T14:23:47;2.35;;;1.70;;
65471;SDS011;52068;50.710;14.492;2022-07-29T14:26:13;4.57;;;1.85;;
65471;SDS011;52068;50.710;14.492;2022-07-29T14:28:38;5.22;;;1.83;;
65471;SDS011;52068;50.710;14.492;2022-07-29T14:31:04;3.33;;;1.85;;
65471;SDS011;52068;50.710;14.492;2022-07-29T14:33:29;2.00;;;1.70;;
65471;SDS011;52068;50.710;14.492;2022-07-29T14:35:55;3.67;;;1.80;;
65471;SDS011;52068;50.710;14.492;2022-07-29T14:38:20;2.78;;;1.50;;
65471;SDS011;52068;50.710;14.492;2022-07-29T14:40:45;7.53;;;1.70;;
65471;SDS011;52068;50.710;14.492;2022-07-29T14:43:11;2.38;;;1.80;;
65471;SDS011;52068;50.710;14.492;2022-07-29T14:45:38;5.65;;;1.80;;
65471;SDS011;52068;50.710;14.492;2022-07-29T14:48:04;1.60;;;1.50;;
65471;SDS011;52068;50.710;14.492;2022-07-29T14:50:29;6.00;;;1.75;;
65471;SDS011;52068;50.710;14.492;2022-07-29T14:52:55;4.50;;;2.10;;
65471;SDS011;52068;50.710;14.492;2022-07-29T14:55:20;4.07;;;1.85;;
65471;SDS011;52068;50.710;14.492;2022-07-29T14:57:46;2.22;;;1.67;;
65471;SDS011;52068;50.710;14.492;2022-07-29T15:00:13;3.38;;;1.90;;
65471;SDS011;52068;50.710;14.492;2022-07-29T15:02:39;5.43;;;2.03;;
65471;SDS011;52068;50.710;14.492;2022-07-29T15:05:04;3.92;;;1.73;;
65471;SDS011;52068;50.710;14.492;2022-07-29T15:07:30;3.42;;;1.80;;
65471;SDS011;52068;50.710;14.492;2022-07-29T15:09:55;2.97;;;1.90;;
65471;SDS011;52068;50.710;14.492;2022-07-29T15:12:21;7.65;;;2.13;;
65471;SDS011;52068;50.710;14.492;2022-07-29T15:14:46;7.82;;;2.03;;
65471;SDS011;52068;50.710;14.492;2022-07-29T15:17:12;6.05;;;2.00;;
65471;SDS011;52068;50.710;14.492;2022-07-29T15:19:37;4.78;;;1.52;;
65471;SDS011;52068;50.710;14.492;2022-07-29T15:22:02;3.05;;;1.92;;
65471;SDS011;52068;50.710;14.492;2022-07-29T15:24:29;7.63;;;2.25;;
65471;SDS011;52068;50.710;14.492;2022-07-29T15:26:55;4.20;;;1.95;;
65471;SDS011;52068;50.710;14.492;2022-07-29T15:29:21;3.33;;;1.70;;
65471;SDS011;52068;50.710;14.492;2022-07-29T15:31:46;3.75;;;1.70;;